Jump to content


SOUTHWEST AIRLINES FLIGHT WN494 FLOWN ON 03-15-2018 BY CAPTAIN JIM BOERMAN

Pilot StatsCaptain Jim Boerman (LDP136) • 4,870.7 total hours • 1,472 total flights [View Logbook]
FLIGHT DETAILS
StatusReceived and approved on 2018-03-15 at 11:03:33
Origin AirportFt Lauderdale-Hollywood Intl (KFLL) • Ft Lauderdale, Florida, United States (9 feet MSL)
Filed Flight PlanKFLL PBI A699 PERMT AR16 ILM J191 HUBBS J61 OTT KBWI
Destination AirportBaltimore-Washington Intl (KBWI) • Baltimore, Maryland, United States (146 feet MSL)
Alternate AirportPhiladelphia Intl (KPHL) • Philadelphia, Pennsylvania, United States (36 feet MSL)
AirlineSouthwest Airlines
AircraftBoeing 737-700 | Winglets (73W / B737-700)
FS Aircraft UsedBoeing 737-7H4NGX Southwest Airlines Winglets
Cruising AltitudeFL330
Distance Flown806 nautical miles
Passengers Onboard93 passengers (68.38% full)
DEPARTURE DETAILS
Time Out09:05:15
Taxi Data135,886 lbs total with 18,086 lbs of fuel onboard
Takeoff Data09:26:29 (21 minutes after leaving gate/ramp) • 135,183 lbs total • 8° pitch at 157 knots
Departure METARKFLL 151153Z 33006KT 10SM FEW010 10/07 A3015 RMK AO2 SLP209 T01000072 10128 20094 53012 $
ARRIVAL DETAILS
Landing Data11:40:20 • 123,749 lbs total • 2° pitch doing 126 knots at a rate of -113.04 feet/minute with 5,577 lbs of fuel onboard
Time In11:49:25 (9 minutes after landing)
Ramp Weight123,377 lbs total
Total Fuel Used12,509 lbs
Total Block Time02:44:09 (2.7 hours) while 30 minutes were spent on the ground
Arrival METARKBWI 151454Z 24012G20KT 10SM FEW180 FEW250 06/M08 A2970 RMK AO2 SLP056 T00561083 58020
MISCELLANEOUS DETAILS
LiveDISPATCH Version4.8.3.1
FS Version
FSUIPC Version5.12
OS VersionWindows 7 32-bit
Screen Resolution1920 x 1080
Pilot's CommentsNo Comments Reported
FLIGHT MAP